Other Surface Observations
Issued by NWS Great Falls, MT

Home | Current Version | Previous Version | Text Only | Print | Product List | Glossary On
Versions: 1 2 3 4 5 6 7 8 9 10 11 12 13 14 15 16 17 18 19 20 21 22 23 24 25 26 27 28 29 30 31 32 33 34 35 36 37 38 39 40 41 42 43 44 45 46 47 48 49 50
229
SXUS55 KTFX 191129
OSOTFX

AREA AWOS OBSERVATIONS
NATIONAL WEATHER SERVICE GREAT FALLS MT
0429 AM MST Mon Feb 19 2018

METAR K3U3 191128Z AUTO 24003KT M24/M27 A2981
METAR KS71 191128Z AUTO 02000KT 7SM M24/M27 A3016
METAR K38S 191129Z AUTO 35008KT 10SM M21/M27 A2985
METAR K6S5 191128Z AUTO 34008 2 1/2SM M16/M21 A2986
METAR K1S3 191128Z AUTO 33000KT M17/M19 A3008
METAR KPWD 191128Z AUTO 30000KT 10SM M21/M24 A3015
METAR KPO1 191128Z AUTO 20000KT  10SM M25/M28 A3019



USA.gov is the U.S. government's official web portal to all federal, state and local government web resources and services.